createdAt,value
2023-05-19T00:02:09.353Z,12.90
2023-05-19T00:04:37.684Z,11.10
2023-05-19T00:07:08.309Z,11.10
2023-05-19T00:09:35.793Z,11.10
2023-05-19T00:12:02.956Z,11.10
2023-05-19T00:14:33.217Z,11.10
2023-05-19T00:17:01.936Z,11.00
2023-05-19T00:19:32.167Z,11.00
2023-05-19T00:21:59.443Z,12.80
2023-05-19T00:24:26.483Z,11.90
2023-05-19T00:26:53.558Z,12.80
2023-05-19T00:29:22.982Z,12.20
2023-05-19T00:31:50.037Z,12.30
2023-05-19T00:34:17.092Z,10.90
2023-05-19T00:36:44.139Z,12.40
2023-05-19T00:39:11.233Z,12.60
2023-05-19T00:41:38.152Z,12.90
2023-05-19T00:44:06.531Z,11.00
2023-05-19T00:46:34.034Z,10.80
2023-05-19T00:49:00.987Z,12.60
2023-05-19T00:51:29.796Z,12.00
2023-05-19T00:53:56.841Z,12.20
2023-05-19T00:56:23.819Z,12.80
2023-05-19T00:58:52.036Z,10.90
2023-05-19T01:01:21.614Z,10.90
2023-05-19T01:03:49.170Z,10.80
2023-05-19T01:06:19.163Z,13.00
2023-05-19T01:08:46.599Z,13.40
2023-05-19T01:11:13.567Z,10.80
2023-05-19T01:13:42.231Z,13.00
2023-05-19T01:16:24.894Z,12.60
2023-05-19T01:19:38.834Z,10.70
2023-05-19T01:22:31.058Z,10.70
2023-05-19T01:25:42.759Z,10.70
2023-05-19T01:28:37.210Z,10.70
2023-05-19T01:31:06.434Z,10.70
2023-05-19T01:33:34.339Z,10.70
2023-05-19T01:36:04.262Z,13.10
2023-05-19T01:38:34.716Z,10.70
2023-05-19T01:41:04.340Z,11.20
2023-05-19T01:43:32.027Z,12.80
2023-05-19T01:46:00.481Z,12.20
2023-05-19T01:48:29.001Z,12.20
2023-05-19T01:50:57.388Z,10.70
2023-05-19T01:53:25.694Z,11.70
2023-05-19T01:55:56.754Z,13.00
2023-05-19T01:58:53.518Z,11.80
2023-05-19T02:01:52.699Z,10.70
2023-05-19T02:04:40.078Z,10.70
2023-05-19T02:07:39.653Z,12.50
2023-05-19T02:10:12.591Z,10.70
2023-05-19T02:12:40.811Z,10.70
2023-05-19T02:15:15.164Z,10.70
2023-05-19T02:17:51.744Z,10.70
2023-05-19T02:20:19.620Z,10.70
2023-05-19T02:22:46.697Z,12.60
2023-05-19T02:25:14.091Z,10.70
2023-05-19T02:27:42.302Z,10.60
2023-05-19T02:30:10.544Z,12.60
2023-05-19T02:32:37.776Z,10.70
2023-05-19T02:35:05.530Z,10.80
2023-05-19T02:37:32.477Z,10.60
2023-05-19T02:39:59.424Z,10.70
2023-05-19T02:42:26.560Z,10.70
2023-05-19T02:44:55.764Z,12.60
2023-05-19T02:47:22.837Z,12.70
2023-05-19T02:49:49.904Z,12.10
2023-05-19T02:52:17.019Z,10.50
2023-05-19T02:54:44.068Z,12.50
2023-05-19T02:57:11.329Z,10.50
2023-05-19T02:59:38.360Z,12.80
2023-05-19T03:02:05.521Z,11.60
2023-05-19T03:04:32.666Z,10.70
2023-05-19T03:06:59.728Z,10.60
2023-05-19T03:09:26.699Z,12.70
2023-05-19T03:11:53.784Z,12.80
2023-05-19T03:14:24.018Z,12.70
2023-05-19T03:16:51.466Z,10.70
2023-05-19T03:19:18.691Z,12.30
2023-05-19T03:21:47.313Z,12.50
2023-05-19T03:24:14.342Z,10.60
2023-05-19T03:26:42.115Z,13.80
2023-05-19T03:29:09.105Z,13.70
2023-05-19T03:31:36.184Z,12.80
2023-05-19T03:34:03.509Z,11.80
2023-05-19T03:36:39.700Z,12.00
2023-05-19T03:39:07.311Z,10.60
2023-05-19T03:41:34.456Z,13.60
2023-05-19T03:44:01.595Z,12.80
2023-05-19T03:46:28.729Z,10.70
2023-05-19T03:48:56.244Z,12.60
2023-05-19T03:51:23.274Z,13.00
2023-05-19T03:53:50.935Z,10.70
2023-05-19T03:56:18.318Z,10.70
2023-05-19T03:58:46.955Z,11.70
2023-05-19T04:01:13.934Z,10.80
2023-05-19T04:03:41.656Z,11.90
2023-05-19T04:06:08.991Z,12.30
2023-05-19T04:08:36.215Z,11.40
2023-05-19T04:11:03.336Z,10.80
2023-05-19T04:13:32.503Z,10.80
2023-05-19T04:15:59.695Z,12.90
2023-05-19T04:18:29.081Z,12.50
2023-05-19T04:20:56.380Z,10.90
2023-05-19T04:23:23.536Z,12.10
2023-05-19T04:25:50.607Z,12.20
2023-05-19T04:28:18.130Z,12.90
2023-05-19T04:30:46.682Z,11.40
2023-05-19T04:33:13.839Z,12.20
2023-05-19T04:35:40.963Z,12.80
2023-05-19T04:38:07.895Z,13.00
2023-05-19T04:40:34.988Z,11.10
2023-05-19T04:43:02.372Z,12.80
2023-05-19T04:45:30.136Z,11.20
2023-05-19T04:47:58.201Z,11.80
2023-05-19T04:50:25.409Z,11.30
2023-05-19T04:52:52.474Z,12.60
2023-05-19T04:55:19.634Z,11.40
2023-05-19T04:57:47.019Z,12.10
2023-05-19T05:00:14.780Z,12.70
2023-05-19T05:02:42.924Z,11.50
2023-05-19T05:05:10.280Z,11.60
2023-05-19T05:07:37.282Z,13.70
2023-05-19T05:10:05.089Z,11.60
2023-05-19T05:12:32.960Z,11.60
2023-05-19T05:15:00.483Z,11.70
2023-05-19T05:17:28.268Z,11.80
2023-05-19T05:19:56.090Z,11.80
2023-05-19T05:22:23.488Z,11.90
2023-05-19T05:24:50.963Z,11.90
2023-05-19T05:27:18.054Z,12.00
2023-05-19T05:29:45.097Z,14.00
2023-05-19T05:32:12.076Z,12.90
2023-05-19T05:34:41.057Z,12.30
2023-05-19T05:37:08.003Z,13.70
2023-05-19T05:39:34.965Z,12.40
2023-05-19T05:42:01.947Z,12.40
2023-05-19T05:44:28.873Z,13.80
2023-05-19T05:46:56.219Z,14.00
2023-05-19T05:49:23.605Z,12.70
2023-05-19T05:52:04.951Z,12.80
2023-05-19T05:54:33.524Z,12.90
2023-05-19T05:57:03.611Z,13.00
2023-05-19T05:59:31.123Z,13.00
2023-05-19T06:01:58.338Z,13.10
2023-05-19T06:04:31.921Z,13.10
2023-05-19T06:07:01.871Z,14.90
2023-05-19T06:09:30.232Z,13.20
2023-05-19T06:12:00.831Z,13.30
2023-05-19T06:14:30.966Z,13.40
2023-05-19T06:16:57.913Z,15.50
2023-05-19T06:19:25.563Z,15.40
2023-05-19T06:21:53.887Z,13.50
2023-05-19T06:24:23.366Z,13.60
2023-05-19T06:26:50.281Z,13.70
2023-05-19T06:29:17.327Z,14.70
2023-05-19T06:31:44.331Z,14.30
2023-05-19T06:34:12.482Z,13.80
2023-05-19T06:36:41.481Z,14.60
2023-05-19T06:39:08.627Z,14.30
2023-05-19T06:41:35.555Z,14.50
2023-05-19T06:44:09.426Z,14.10
2023-05-19T06:46:37.238Z,14.20
2023-05-19T06:49:11.465Z,14.30
2023-05-19T06:51:41.310Z,14.40
2023-05-19T06:54:10.958Z,14.50
2023-05-19T06:56:37.930Z,14.60
2023-05-19T06:59:11.822Z,15.50
2023-05-19T07:01:38.843Z,15.90
2023-05-19T07:04:06.208Z,14.70
2023-05-19T07:06:33.978Z,14.70
2023-05-19T07:09:01.162Z,15.50
2023-05-19T07:17:00.920Z,15.70
2023-05-19T07:19:28.025Z,14.70
2023-05-19T07:21:59.509Z,15.20
2023-05-19T07:24:27.542Z,16.30
2023-05-19T07:26:54.601Z,14.60
2023-05-19T07:29:25.706Z,14.60
2023-05-19T07:31:54.369Z,14.60
2023-05-19T07:34:22.014Z,15.90
2023-05-19T07:36:49.050Z,16.10
2023-05-19T07:39:16.353Z,14.70
2023-05-19T07:41:43.657Z,15.40
2023-05-19T07:44:10.905Z,14.80
2023-05-19T07:46:38.288Z,15.90
2023-05-19T07:49:05.318Z,15.90
2023-05-19T07:51:32.277Z,14.80
2023-05-19T07:53:59.313Z,15.00
2023-05-19T07:56:26.314Z,14.90
2023-05-19T07:58:53.298Z,14.90
2023-05-19T08:01:20.250Z,14.90
2023-05-19T08:03:47.354Z,15.30
2023-05-19T08:06:14.405Z,15.00
2023-05-19T08:08:42.212Z,15.50
2023-05-19T08:11:09.234Z,15.80
2023-05-19T08:13:36.298Z,15.70
2023-05-19T08:16:03.963Z,15.50
2023-05-19T08:18:31.071Z,15.40
2023-05-19T08:20:58.609Z,15.50
2023-05-19T08:23:25.974Z,15.60
2023-05-19T08:25:52.980Z,15.60
2023-05-19T08:28:19.958Z,15.70
2023-05-19T08:30:49.548Z,16.10
2023-05-19T08:33:16.494Z,15.80
2023-05-19T08:35:43.612Z,16.30
2023-05-19T08:38:11.144Z,16.00
2023-05-19T08:40:41.787Z,16.00
2023-05-19T08:43:09.944Z,16.10
2023-05-19T08:45:38.781Z,17.90
2023-05-19T08:48:06.772Z,16.30
2023-05-19T08:50:39.786Z,16.30
2023-05-19T08:53:32.550Z,16.30
2023-05-19T08:56:18.180Z,16.40
2023-05-19T08:58:46.072Z,16.40
2023-05-19T09:01:19.830Z,16.50
2023-05-19T09:03:49.918Z,16.60
2023-05-19T09:06:17.327Z,16.60
2023-05-19T09:08:45.116Z,16.80
2023-05-19T09:11:12.453Z,16.90
2023-05-19T09:13:39.789Z,17.00
2023-05-19T09:16:08.143Z,17.20
2023-05-19T09:18:38.978Z,17.30
2023-05-19T09:21:07.211Z,17.40
2023-05-19T09:23:34.787Z,17.50
2023-05-19T09:26:08.768Z,17.40
2023-05-19T09:28:37.854Z,17.40
2023-05-19T09:31:10.288Z,17.40
2023-05-19T09:33:45.529Z,17.50
2023-05-19T09:36:13.676Z,17.60
2023-05-19T09:38:41.360Z,17.70
2023-05-19T09:41:09.250Z,17.90
2023-05-19T09:43:36.842Z,17.90
2023-05-19T09:46:09.547Z,17.90
2023-05-19T09:48:37.891Z,18.00
2023-05-19T09:51:08.216Z,18.00
2023-05-19T09:53:35.568Z,17.90
2023-05-19T09:56:04.160Z,17.90
2023-05-19T09:58:35.476Z,17.80
2023-05-19T10:01:04.968Z,17.90
2023-05-19T10:03:35.442Z,18.00
2023-05-19T10:06:05.572Z,18.00
2023-05-19T10:08:34.454Z,18.00
2023-05-19T10:11:02.196Z,18.10
2023-05-19T10:13:31.124Z,18.20
2023-05-19T10:16:00.024Z,18.30
2023-05-19T10:18:29.334Z,18.40
2023-05-19T10:20:58.031Z,18.60
2023-05-19T10:23:26.340Z,18.70
2023-05-19T10:25:59.075Z,18.80
2023-05-19T10:28:35.860Z,18.90
2023-05-19T10:31:08.441Z,19.00
2023-05-19T10:34:23.414Z,19.00
2023-05-19T10:37:17.084Z,19.00
2023-05-19T10:39:44.916Z,19.10
2023-05-19T10:42:17.265Z,19.20
2023-05-19T10:45:21.341Z,19.30
2023-05-19T10:47:51.132Z,19.40
2023-05-19T10:50:18.338Z,19.60
2023-05-19T10:52:56.381Z,19.90
2023-05-19T10:55:53.246Z,20.10
2023-05-19T10:58:45.836Z,20.30
2023-05-19T11:01:18.916Z,20.60
2023-05-19T11:03:54.872Z,20.70
2023-05-19T11:06:29.024Z,21.10
2023-05-19T11:09:16.134Z,21.50
2023-05-19T11:11:52.981Z,21.80
2023-05-19T11:14:24.162Z,22.30
2023-05-19T11:16:59.787Z,22.60
2023-05-19T11:19:32.411Z,23.00
2023-05-19T11:22:10.459Z,23.50
2023-05-19T11:24:52.479Z,24.00
2023-05-19T11:27:33.238Z,24.50
2023-05-19T11:30:04.349Z,24.90
2023-05-19T11:32:39.424Z,25.20
2023-05-19T11:35:08.280Z,25.70
2023-05-19T11:37:35.799Z,25.90
2023-05-19T11:40:07.331Z,25.90
2023-05-19T11:42:36.144Z,25.80
2023-05-19T11:45:04.706Z,25.90
2023-05-19T11:47:46.495Z,25.80
2023-05-19T11:50:22.420Z,25.70
2023-05-19T11:52:51.100Z,25.70
2023-05-19T11:55:22.030Z,25.70
2023-05-19T12:00:34.887Z,26.30
2023-05-19T12:03:01.992Z,26.90
2023-05-19T12:05:29.425Z,27.20
2023-05-19T12:07:56.557Z,27.60
2023-05-19T12:10:25.261Z,27.90
2023-05-19T12:12:53.369Z,28.10
2023-05-19T12:15:24.464Z,27.60
2023-05-19T12:17:56.895Z,28.60
2023-05-19T12:20:25.463Z,28.70
2023-05-19T12:22:54.713Z,28.70
2023-05-19T12:25:22.452Z,28.80
2023-05-19T12:27:49.708Z,29.00
2023-05-19T12:30:17.316Z,28.90
2023-05-19T12:32:44.537Z,28.90
2023-05-19T12:35:11.786Z,28.60
2023-05-19T12:37:42.541Z,28.40
2023-05-19T12:40:10.536Z,28.40
2023-05-19T12:42:37.841Z,28.20
2023-05-19T12:45:08.590Z,28.10
2023-05-19T12:47:36.769Z,28.00
2023-05-19T12:50:09.237Z,27.90
2023-05-19T12:52:51.163Z,27.70
2023-05-19T12:55:20.541Z,27.60
2023-05-19T12:57:57.402Z,27.40
2023-05-19T13:00:28.234Z,27.40
2023-05-19T13:03:06.212Z,27.20
2023-05-19T13:05:39.320Z,26.90
2023-05-19T13:08:27.800Z,26.50
2023-05-19T13:10:56.073Z,26.20
2023-05-19T13:13:23.013Z,26.20
2023-05-19T13:15:50.078Z,26.10
2023-05-19T13:18:18.029Z,26.10
2023-05-19T13:20:47.175Z,25.90
2023-05-19T13:23:16.221Z,25.90
2023-05-19T13:25:43.594Z,25.90
2023-05-19T13:28:11.038Z,26.00
2023-05-19T13:30:40.913Z,25.90
2023-05-19T13:33:08.472Z,26.00
2023-05-19T13:35:38.423Z,26.10
2023-05-19T13:38:10.456Z,26.20
2023-05-19T13:40:39.534Z,26.30
2023-05-19T13:43:10.178Z,26.40
2023-05-19T13:45:37.556Z,25.30
2023-05-19T13:48:07.183Z,26.80
2023-05-19T13:50:34.379Z,27.20
2023-05-19T13:53:01.402Z,27.60
2023-05-19T13:55:28.456Z,27.90
2023-05-19T13:57:55.682Z,28.30
2023-05-19T14:00:23.014Z,28.70
2023-05-19T14:02:50.056Z,29.10
2023-05-19T14:05:17.200Z,29.50
2023-05-19T14:07:44.727Z,29.90
2023-05-19T14:10:11.912Z,30.30
2023-05-19T14:12:52.808Z,30.50
2023-05-19T14:15:27.127Z,30.50
2023-05-19T14:17:54.197Z,30.50
2023-05-19T14:20:21.791Z,30.60
2023-05-19T14:22:48.745Z,30.70
2023-05-19T14:25:16.045Z,30.60
2023-05-19T14:27:45.712Z,30.60
2023-05-19T14:30:13.028Z,30.60
2023-05-19T14:32:40.083Z,30.90
2023-05-19T14:35:07.542Z,31.10
2023-05-19T14:37:34.575Z,31.30
2023-05-19T14:40:02.272Z,31.50
2023-05-19T14:42:29.513Z,31.80
2023-05-19T14:44:56.691Z,32.00
2023-05-19T14:47:26.387Z,32.20
2023-05-19T14:49:54.854Z,32.40
2023-05-19T14:52:22.690Z,32.50
2023-05-19T14:54:49.716Z,32.50
2023-05-19T14:57:16.631Z,32.80
2023-05-19T14:59:43.589Z,33.00
2023-05-19T15:02:12.031Z,33.20
2023-05-19T15:04:39.840Z,33.30
2023-05-19T15:07:10.247Z,33.50
2023-05-19T15:09:38.262Z,33.60
2023-05-19T15:12:05.508Z,33.70
2023-05-19T15:14:32.424Z,33.80
2023-05-19T15:16:59.915Z,33.80
2023-05-19T15:19:27.085Z,33.60
2023-05-19T15:21:54.375Z,33.60
2023-05-19T15:24:21.479Z,33.80
2023-05-19T15:26:48.705Z,33.80
2023-05-19T15:29:15.698Z,33.50
2023-05-19T15:31:42.847Z,33.30
2023-05-19T15:34:09.957Z,33.20
2023-05-19T15:36:36.888Z,33.10
2023-05-19T15:39:04.008Z,33.00
2023-05-19T15:41:31.015Z,32.90
2023-05-19T15:44:00.224Z,32.90
2023-05-19T15:46:28.042Z,33.00
2023-05-19T15:48:55.461Z,32.90
2023-05-19T15:51:22.848Z,32.80
2023-05-19T15:53:49.893Z,32.60
2023-05-19T15:56:17.277Z,32.50
2023-05-19T15:58:44.304Z,32.50
2023-05-19T16:01:11.713Z,32.40
2023-05-19T16:03:38.778Z,32.50
2023-05-19T16:06:06.056Z,32.50
2023-05-19T16:08:33.200Z,32.40
2023-05-19T16:11:00.487Z,32.50
2023-05-19T16:13:27.535Z,32.40
2023-05-19T16:15:54.511Z,32.30
2023-05-19T16:18:21.526Z,32.20
2023-05-19T16:20:48.433Z,31.90
2023-05-19T16:23:15.432Z,31.70
2023-05-19T16:25:42.411Z,31.60
2023-05-19T16:28:09.331Z,31.50
2023-05-19T16:30:36.502Z,31.50
2023-05-19T16:33:03.694Z,31.70
2023-05-19T16:35:30.938Z,31.70
2023-05-19T16:37:58.224Z,31.40
2023-05-19T16:40:28.699Z,31.10
2023-05-19T16:42:57.102Z,30.70
2023-05-19T16:45:26.196Z,30.30
2023-05-19T16:47:53.291Z,29.90
2023-05-19T16:50:20.270Z,29.50
2023-05-19T16:52:47.343Z,29.20
2023-05-19T16:55:19.548Z,28.90
2023-05-19T16:57:47.141Z,28.60
2023-05-19T17:00:15.872Z,28.20
2023-05-19T17:02:43.117Z,27.70
2023-05-19T17:05:10.177Z,27.30
2023-05-19T17:07:37.112Z,26.90
2023-05-19T17:10:04.418Z,26.40
2023-05-19T17:12:31.398Z,26.00
2023-05-19T17:14:58.308Z,25.80
2023-05-19T17:17:25.373Z,25.40
2023-05-19T17:19:52.488Z,25.10
2023-05-19T17:22:19.504Z,24.80
2023-05-19T17:24:47.222Z,23.60
2023-05-19T17:27:15.071Z,24.40
2023-05-19T17:29:42.091Z,24.20
2023-05-19T17:32:09.207Z,24.00
2023-05-19T17:34:36.279Z,23.80
2023-05-19T17:37:03.308Z,23.60
2023-05-19T17:39:30.240Z,23.50
2023-05-19T17:41:57.190Z,23.20
2023-05-19T17:44:24.072Z,23.10
2023-05-19T17:46:51.647Z,22.90
2023-05-19T17:49:18.758Z,22.70
2023-05-19T17:51:45.962Z,22.60
2023-05-19T17:54:13.251Z,22.50
2023-05-19T17:56:44.781Z,22.30
2023-05-19T17:59:12.253Z,22.10
2023-05-19T18:01:40.864Z,22.00
2023-05-19T18:04:08.720Z,21.90
2023-05-19T18:06:38.617Z,21.70
2023-05-19T18:09:08.983Z,21.60
2023-05-19T18:11:36.544Z,21.40
2023-05-19T18:14:03.627Z,21.30
2023-05-19T18:16:30.857Z,21.20
2023-05-19T18:18:57.891Z,21.00
2023-05-19T18:21:25.296Z,20.90
2023-05-19T18:23:52.245Z,20.70
2023-05-19T18:26:19.208Z,20.60
2023-05-19T18:28:46.251Z,20.50
2023-05-19T18:31:19.825Z,20.40
2023-05-19T18:33:47.374Z,20.30
2023-05-19T18:36:16.454Z,20.20
2023-05-19T18:38:43.542Z,20.10
2023-05-19T18:41:10.485Z,20.00
2023-05-19T18:43:37.511Z,19.90
2023-05-19T18:46:04.603Z,19.90
2023-05-19T18:48:33.098Z,19.80
2023-05-19T18:51:00.241Z,19.70
2023-05-19T18:53:27.398Z,19.70
2023-05-19T18:55:54.358Z,19.60
2023-05-19T18:58:21.574Z,19.50
2023-05-19T19:00:48.650Z,19.40
2023-05-19T19:03:15.850Z,19.30
2023-05-19T19:05:43.972Z,19.20
2023-05-19T19:08:11.053Z,19.20
2023-05-19T19:10:40.631Z,19.10
2023-05-19T19:13:07.679Z,19.00
2023-05-19T19:15:34.645Z,19.00
2023-05-19T19:18:02.208Z,18.90
2023-05-19T19:20:29.377Z,18.90
2023-05-19T19:22:56.800Z,18.80
2023-05-19T19:25:23.890Z,18.90
2023-05-19T19:27:51.223Z,18.80
2023-05-19T19:30:18.190Z,18.60
2023-05-19T19:32:45.162Z,18.60
2023-05-19T19:35:12.259Z,18.50
2023-05-19T19:37:39.238Z,18.40
2023-05-19T19:40:07.080Z,18.40
2023-05-19T19:42:34.284Z,18.30
2023-05-19T19:45:01.342Z,18.20
2023-05-19T19:47:28.552Z,18.10
2023-05-19T19:49:56.102Z,18.10
2023-05-19T19:52:23.127Z,18.10
2023-05-19T19:54:50.114Z,18.20
2023-05-19T19:57:17.333Z,18.10
2023-05-19T19:59:44.394Z,17.90
2023-05-19T20:02:11.625Z,17.80
2023-05-19T20:04:38.803Z,17.80
2023-05-19T20:07:05.851Z,17.70
2023-05-19T20:09:32.903Z,17.60
2023-05-19T20:11:59.908Z,17.50
2023-05-19T20:14:27.270Z,17.50
2023-05-19T20:16:54.331Z,17.40
2023-05-19T20:19:21.440Z,17.30
2023-05-19T20:21:50.882Z,17.30
2023-05-19T20:24:17.837Z,17.20
2023-05-19T20:26:44.995Z,17.10
2023-05-19T20:29:12.002Z,17.10
2023-05-19T20:31:38.981Z,17.00
2023-05-19T20:34:06.160Z,17.00
2023-05-19T20:36:33.169Z,16.90
2023-05-19T20:39:00.200Z,16.80
2023-05-19T20:41:27.420Z,16.80
2023-05-19T20:43:55.055Z,16.70
2023-05-19T20:46:22.120Z,16.70
2023-05-19T20:48:49.152Z,16.70
2023-05-19T20:51:16.102Z,16.60
2023-05-19T20:53:43.083Z,16.50
2023-05-19T20:56:13.061Z,16.40
2023-05-19T20:58:40.155Z,16.40
2023-05-19T21:01:07.471Z,16.30
2023-05-19T21:03:34.871Z,16.60
2023-05-19T21:06:01.895Z,16.30
2023-05-19T21:08:29.679Z,16.30
2023-05-19T21:10:56.650Z,16.20
2023-05-19T21:13:23.611Z,16.20
2023-05-19T21:15:50.634Z,16.20
2023-05-19T21:18:17.644Z,16.00
2023-05-19T21:20:44.675Z,16.60
2023-05-19T21:23:11.593Z,15.90
2023-05-19T21:25:39.807Z,16.30
2023-05-19T21:28:06.763Z,15.80
2023-05-19T21:30:33.995Z,16.00
2023-05-19T21:33:01.273Z,15.80
2023-05-19T21:35:28.230Z,16.20
2023-05-19T21:37:55.820Z,15.80
2023-05-19T21:40:22.835Z,15.70
2023-05-19T21:42:50.253Z,15.70
2023-05-19T21:45:17.215Z,15.70
2023-05-19T21:47:44.386Z,15.60
2023-05-19T21:50:11.441Z,15.60
2023-05-19T21:52:38.595Z,16.30
2023-05-19T21:55:06.492Z,15.60
2023-05-19T21:57:33.445Z,15.60
2023-05-19T22:00:00.595Z,15.50
2023-05-19T22:02:27.698Z,15.60
2023-05-19T22:04:54.669Z,15.90
2023-05-19T22:07:26.887Z,15.40
2023-05-19T22:09:54.023Z,15.40
2023-05-19T22:12:21.041Z,15.40
2023-05-19T22:14:48.000Z,15.30
2023-05-19T22:17:14.958Z,15.30
2023-05-19T22:19:41.944Z,15.20
2023-05-19T22:22:14.408Z,15.20
2023-05-19T22:24:41.839Z,15.20
2023-05-19T22:27:09.183Z,15.10
2023-05-19T22:29:38.554Z,15.20
2023-05-19T22:32:09.304Z,15.10
2023-05-19T22:34:36.342Z,15.00
2023-05-19T22:37:03.321Z,15.80
2023-05-19T22:39:30.258Z,14.90
2023-05-19T22:41:57.220Z,14.90
2023-05-19T22:44:24.271Z,14.80
2023-05-19T22:46:51.195Z,14.80
2023-05-19T22:49:18.206Z,14.70
2023-05-19T22:51:45.229Z,15.50
2023-05-19T22:54:12.374Z,14.90
2023-05-19T22:56:39.331Z,14.50
2023-05-19T22:59:06.319Z,14.80
2023-05-19T23:01:33.241Z,14.50
2023-05-19T23:04:00.260Z,14.80
2023-05-19T23:06:27.289Z,14.40
2023-05-19T23:09:04.408Z,14.50
2023-05-19T23:11:31.386Z,17.00
2023-05-19T23:13:58.301Z,14.30
2023-05-19T23:16:25.436Z,14.20
2023-05-19T23:18:52.459Z,14.20
2023-05-19T23:21:19.546Z,15.20
2023-05-19T23:23:46.487Z,14.40
2023-05-19T23:26:13.639Z,14.90
2023-05-19T23:28:42.698Z,14.00
2023-05-19T23:31:10.318Z,14.00
2023-05-19T23:33:37.356Z,13.90
2023-05-19T23:36:09.890Z,13.90
2023-05-19T23:38:37.715Z,13.80
2023-05-19T23:41:05.146Z,13.80
2023-05-19T23:43:32.746Z,13.80
2023-05-19T23:45:59.942Z,14.00
2023-05-19T23:48:29.194Z,15.10
2023-05-19T23:50:57.744Z,13.80
2023-05-19T23:53:25.143Z,14.50
2023-05-19T23:55:52.166Z,14.00
2023-05-19T23:58:19.177Z,14.00
